sensor_id;sensor_type;location;lat;lon;timestamp;pressure;altitude;pressure_sealevel;temperature;humidity
52839;BME280;39219;53.678;9.856;2022-07-24T00:00:21;101823.56;;;10.26;100.00
52839;BME280;39219;53.678;9.856;2022-07-24T00:02:47;101818.28;;;10.21;100.00
52839;BME280;39219;53.678;9.856;2022-07-24T00:05:14;101822.66;;;10.30;100.00
52839;BME280;39219;53.678;9.856;2022-07-24T00:07:41;101813.84;;;10.18;100.00
52839;BME280;39219;53.678;9.856;2022-07-24T00:10:10;101815.63;;;10.16;100.00
52839;BME280;39219;53.678;9.856;2022-07-24T00:12:36;101819.19;;;10.12;100.00
52839;BME280;39219;53.678;9.856;2022-07-24T00:15:04;101827.19;;;10.11;100.00
52839;BME280;39219;53.678;9.856;2022-07-24T00:17:31;101820.97;;;10.10;100.00
52839;BME280;39219;53.678;9.856;2022-07-24T00:19:57;101821.00;;;10.02;100.00
52839;BME280;39219;53.678;9.856;2022-07-24T00:22:24;101824.56;;;9.97;100.00
52839;BME280;39219;53.678;9.856;2022-07-24T00:24:51;101806.00;;;9.95;100.00
52839;BME280;39219;53.678;9.856;2022-07-24T00:27:18;101798.03;;;9.97;100.00
52839;BME280;39219;53.678;9.856;2022-07-24T00:29:44;101797.09;;;10.08;100.00
52839;BME280;39219;53.678;9.856;2022-07-24T00:32:11;101800.59;;;10.20;100.00
52839;BME280;39219;53.678;9.856;2022-07-24T00:34:37;101808.63;;;9.97;100.00
52839;BME280;39219;53.678;9.856;2022-07-24T00:37:04;101806.84;;;9.99;100.00
52839;BME280;39219;53.678;9.856;2022-07-24T00:39:30;101800.66;;;10.07;100.00
52839;BME280;39219;53.678;9.856;2022-07-24T00:41:58;101797.19;;;9.87;100.00
52839;BME280;39219;53.678;9.856;2022-07-24T00:44:25;101808.69;;;9.86;100.00
52839;BME280;39219;53.678;9.856;2022-07-24T00:46:51;101814.81;;;10.06;100.00
52839;BME280;39219;53.678;9.856;2022-07-24T00:49:19;101822.75;;;10.08;100.00
52839;BME280;39219;53.678;9.856;2022-07-24T00:51:47;101817.44;;;10.13;100.00
52839;BME280;39219;53.678;9.856;2022-07-24T00:54:15;101820.06;;;10.16;100.00
52839;BME280;39219;53.678;9.856;2022-07-24T00:56:44;101818.41;;;9.90;100.00
52839;BME280;39219;53.678;9.856;2022-07-24T00:59:12;101827.22;;;9.97;100.00
52839;BME280;39219;53.678;9.856;2022-07-24T01:01:38;101818.41;;;9.88;100.00
52839;BME280;39219;53.678;9.856;2022-07-24T01:04:05;101812.25;;;9.86;100.00
52839;BME280;39219;53.678;9.856;2022-07-24T01:06:32;101815.78;;;9.81;100.00
52839;BME280;39219;53.678;9.856;2022-07-24T01:08:59;101810.53;;;9.67;100.00
52839;BME280;39219;53.678;9.856;2022-07-24T01:11:26;101821.13;;;9.73;100.00
52839;BME280;39219;53.678;9.856;2022-07-24T01:13:53;101821.09;;;9.85;100.00
52839;BME280;39219;53.678;9.856;2022-07-24T01:16:21;101813.16;;;9.76;100.00
52839;BME280;39219;53.678;9.856;2022-07-24T01:18:48;101812.28;;;9.66;100.00
52839;BME280;39219;53.678;9.856;2022-07-24T01:21:16;101814.03;;;9.72;100.00
52839;BME280;39219;53.678;9.856;2022-07-24T01:23:42;101806.09;;;9.64;100.00
52839;BME280;39219;53.678;9.856;2022-07-24T01:26:09;101809.63;;;9.63;100.00
52839;BME280;39219;53.678;9.856;2022-07-24T01:28:36;101808.78;;;9.56;100.00
52839;BME280;39219;53.678;9.856;2022-07-24T01:31:02;101812.28;;;9.65;100.00
52839;BME280;39219;53.678;9.856;2022-07-24T01:33:29;101815.78;;;9.74;100.00
52839;BME280;39219;53.678;9.856;2022-07-24T01:35:56;101817.53;;;9.78;100.00
52839;BME280;39219;53.678;9.856;2022-07-24T01:38:24;101809.66;;;9.55;100.00
52839;BME280;39219;53.678;9.856;2022-07-24T01:40:51;101802.59;;;9.57;100.00
52839;BME280;39219;53.678;9.856;2022-07-24T01:43:18;101807.84;;;9.62;100.00
52839;BME280;39219;53.678;9.856;2022-07-24T01:45:44;101794.66;;;9.48;100.00
52839;BME280;39219;53.678;9.856;2022-07-24T01:48:11;101802.59;;;9.48;100.00
52839;BME280;39219;53.678;9.856;2022-07-24T01:50:38;101802.63;;;9.37;100.00
52839;BME280;39219;53.678;9.856;2022-07-24T01:53:04;101805.25;;;9.51;100.00
52839;BME280;39219;53.678;9.856;2022-07-24T01:55:32;101793.75;;;9.55;100.00
52839;BME280;39219;53.678;9.856;2022-07-24T01:57:59;101795.53;;;9.44;100.00
52839;BME280;39219;53.678;9.856;2022-07-24T02:00:26;101809.69;;;9.33;100.00
52839;BME280;39219;53.678;9.856;2022-07-24T02:02:52;101803.50;;;9.31;100.00
52839;BME280;39219;53.678;9.856;2022-07-24T02:05:19;101795.59;;;9.25;100.00
52839;BME280;39219;53.678;9.856;2022-07-24T02:07:45;101795.56;;;9.11;100.00
52839;BME280;39219;53.678;9.856;2022-07-24T02:10:20;101788.50;;;9.04;100.00
52839;BME280;39219;53.678;9.856;2022-07-24T02:12:48;101787.66;;;9.13;100.00
52839;BME280;39219;53.678;9.856;2022-07-24T02:15:14;101788.50;;;9.19;100.00
52839;BME280;39219;53.678;9.856;2022-07-24T02:17:45;101793.78;;;9.43;100.00
52839;BME280;39219;53.678;9.856;2022-07-24T02:20:11;101803.53;;;9.22;100.00
52839;BME280;39219;53.678;9.856;2022-07-24T02:22:38;101798.22;;;9.14;100.00
52839;BME280;39219;53.678;9.856;2022-07-24T02:25:05;101800.88;;;9.17;100.00
52839;BME280;39219;53.678;9.856;2022-07-24T02:27:32;101794.72;;;9.14;100.00
52839;BME280;39219;53.678;9.856;2022-07-24T02:30:00;101792.03;;;9.12;100.00
52839;BME280;39219;53.678;9.856;2022-07-24T02:32:27;101794.69;;;9.15;100.00
52839;BME280;39219;53.678;9.856;2022-07-24T02:34:53;101782.34;;;9.07;100.00
52839;BME280;39219;53.678;9.856;2022-07-24T02:37:20;101788.53;;;9.12;100.00
52839;BME280;39219;53.678;9.856;2022-07-24T02:39:46;101796.47;;;9.15;100.00
52839;BME280;39219;53.678;9.856;2022-07-24T02:42:13;101785.00;;;9.03;100.00
52839;BME280;39219;53.678;9.856;2022-07-24T02:44:39;101793.84;;;9.06;100.00
52839;BME280;39219;53.678;9.856;2022-07-24T02:47:07;101803.53;;;9.10;100.00
52839;BME280;39219;53.678;9.856;2022-07-24T02:49:33;101807.94;;;9.09;100.00
52839;BME280;39219;53.678;9.856;2022-07-24T02:52:01;101800.00;;;8.89;100.00
52839;BME280;39219;53.678;9.856;2022-07-24T02:54:27;101802.66;;;8.92;100.00
52839;BME280;39219;53.678;9.856;2022-07-24T02:56:54;101803.56;;;8.86;100.00
52839;BME280;39219;53.678;9.856;2022-07-24T02:59:20;101794.69;;;9.00;100.00
52839;BME280;39219;53.678;9.856;2022-07-24T03:01:47;101792.06;;;9.08;100.00
52839;BME280;39219;53.678;9.856;2022-07-24T03:04:15;101800.00;;;9.17;100.00
52839;BME280;39219;53.678;9.856;2022-07-24T03:06:41;101798.25;;;9.10;100.00
52839;BME280;39219;53.678;9.856;2022-07-24T03:09:07;101792.94;;;9.03;100.00
52839;BME280;39219;53.678;9.856;2022-07-24T03:11:34;101786.75;;;9.18;100.00
52839;BME280;39219;53.678;9.856;2022-07-24T03:14:01;101782.31;;;9.33;100.00
52839;BME280;39219;53.678;9.856;2022-07-24T03:16:27;101778.78;;;9.31;100.00
52839;BME280;39219;53.678;9.856;2022-07-24T03:18:54;101780.56;;;9.27;100.00
52839;BME280;39219;53.678;9.856;2022-07-24T03:21:21;101784.09;;;9.26;100.00
52839;BME280;39219;53.678;9.856;2022-07-24T03:23:48;101786.75;;;9.20;100.00
52839;BME280;39219;53.678;9.856;2022-07-24T03:26:14;101792.94;;;9.25;100.00
52839;BME280;39219;53.678;9.856;2022-07-24T03:28:41;101794.72;;;9.08;100.00
52839;BME280;39219;53.678;9.856;2022-07-24T03:31:08;101798.25;;;9.13;100.00
52839;BME280;39219;53.678;9.856;2022-07-24T03:33:34;101795.56;;;9.11;100.00
52839;BME280;39219;53.678;9.856;2022-07-24T03:36:01;101786.75;;;9.12;100.00
52839;BME280;39219;53.678;9.856;2022-07-24T03:38:29;101793.81;;;9.24;100.00
52839;BME280;39219;53.678;9.856;2022-07-24T03:40:55;101795.56;;;9.31;100.00
52839;BME280;39219;53.678;9.856;2022-07-24T03:43:22;101795.59;;;9.22;100.00
52839;BME280;39219;53.678;9.856;2022-07-24T03:45:48;101797.34;;;9.28;100.00
52839;BME280;39219;53.678;9.856;2022-07-24T03:48:15;101793.81;;;9.29;100.00
52839;BME280;39219;53.678;9.856;2022-07-24T03:50:41;101791.13;;;9.33;100.00
52839;BME280;39219;53.678;9.856;2022-07-24T03:53:08;101782.28;;;9.47;100.00
52839;BME280;39219;53.678;9.856;2022-07-24T03:55:36;101779.56;;;9.61;100.00
52839;BME280;39219;53.678;9.856;2022-07-24T03:58:02;101774.22;;;9.76;100.00
52839;BME280;39219;53.678;9.856;2022-07-24T04:00:29;101776.88;;;9.84;100.00
52839;BME280;39219;53.678;9.856;2022-07-24T04:02:55;101774.19;;;9.89;100.00
52839;BME280;39219;53.678;9.856;2022-07-24T04:05:22;101783.88;;;9.95;100.00
52839;BME280;39219;53.678;9.856;2022-07-24T04:07:48;101791.88;;;9.90;100.00
52839;BME280;39219;53.678;9.856;2022-07-24T04:10:15;101788.28;;;10.02;100.00
52839;BME280;39219;53.678;9.856;2022-07-24T04:12:42;101785.56;;;10.11;100.00
52839;BME280;39219;53.678;9.856;2022-07-24T04:15:09;101795.25;;;10.26;100.00
52839;BME280;39219;53.678;9.856;2022-07-24T04:17:38;101790.75;;;10.42;100.00
52839;BME280;39219;53.678;9.856;2022-07-24T04:20:06;101787.13;;;10.54;100.00
52839;BME280;39219;53.678;9.856;2022-07-24T04:22:32;101785.25;;;10.69;100.00
52839;BME280;39219;53.678;9.856;2022-07-24T04:24:59;101790.53;;;10.73;100.00
52839;BME280;39219;53.678;9.856;2022-07-24T04:27:25;101779.81;;;10.87;100.00
52839;BME280;39219;53.678;9.856;2022-07-24T04:29:53;101782.41;;;10.95;100.00
52839;BME280;39219;53.678;9.856;2022-07-24T04:32:20;101770.78;;;11.08;100.00
52839;BME280;39219;53.678;9.856;2022-07-24T04:34:46;101772.47;;;11.16;100.00
52839;BME280;39219;53.678;9.856;2022-07-24T04:37:13;101778.59;;;11.24;100.00
52839;BME280;39219;53.678;9.856;2022-07-24T04:39:39;101776.69;;;11.35;100.00
52839;BME280;39219;53.678;9.856;2022-07-24T04:42:06;101781.00;;;11.49;100.00
52839;BME280;39219;53.678;9.856;2022-07-24T04:44:32;101781.69;;;11.66;100.00
52839;BME280;39219;53.678;9.856;2022-07-24T04:47:00;101774.47;;;11.76;100.00
52839;BME280;39219;53.678;9.856;2022-07-24T04:49:27;101777.03;;;11.87;100.00
52839;BME280;39219;53.678;9.856;2022-07-24T04:51:53;101780.41;;;11.98;100.00
52839;BME280;39219;53.678;9.856;2022-07-24T04:54:20;101775.94;;;12.04;100.00
52839;BME280;39219;53.678;9.856;2022-07-24T04:56:46;101778.50;;;12.10;100.00
52839;BME280;39219;53.678;9.856;2022-07-24T04:59:13;101773.84;;;12.26;100.00
52839;BME280;39219;53.678;9.856;2022-07-24T05:01:39;101772.00;;;12.31;100.00
52839;BME280;39219;53.678;9.856;2022-07-24T05:04:07;101776.25;;;12.46;100.00
52839;BME280;39219;53.678;9.856;2022-07-24T05:06:34;101772.53;;;12.56;100.00
52839;BME280;39219;53.678;9.856;2022-07-24T05:09:00;101767.75;;;12.77;100.00
52839;BME280;39219;53.678;9.856;2022-07-24T05:11:27;101774.53;;;12.97;100.00
52839;BME280;39219;53.678;9.856;2022-07-24T05:13:53;101780.31;;;13.24;100.00
52839;BME280;39219;53.678;9.856;2022-07-24T05:16:20;101785.09;;;13.55;100.00
52839;BME280;39219;53.678;9.856;2022-07-24T05:18:46;101775.56;;;13.87;100.00
52839;BME280;39219;53.678;9.856;2022-07-24T05:21:14;101774.53;;;14.33;100.00
52839;BME280;39219;53.678;9.856;2022-07-24T05:23:41;101781.25;;;14.89;100.00
52839;BME280;39219;53.678;9.856;2022-07-24T05:26:08;101784.50;;;16.00;100.00
52839;BME280;39219;53.678;9.856;2022-07-24T05:28:34;101777.78;;;18.24;94.41
52839;BME280;39219;53.678;9.856;2022-07-24T05:31:01;101774.94;;;20.36;81.00
52839;BME280;39219;53.678;9.856;2022-07-24T05:33:28;101783.13;;;21.77;74.95
52839;BME280;39219;53.678;9.856;2022-07-24T05:35:54;101789.63;;;22.70;59.72
52839;BME280;39219;53.678;9.856;2022-07-24T05:38:22;101788.19;;;23.40;59.01
52839;BME280;39219;53.678;9.856;2022-07-24T05:40:48;101787.16;;;23.57;59.29
52839;BME280;39219;53.678;9.856;2022-07-24T05:43:15;101790.06;;;24.54;52.92
52839;BME280;39219;53.678;9.856;2022-07-24T05:45:42;101791.72;;;24.84;53.12
52839;BME280;39219;53.678;9.856;2022-07-24T05:48:09;101793.13;;;24.90;51.83
52839;BME280;39219;53.678;9.856;2022-07-24T05:50:35;101797.88;;;25.01;50.93
52839;BME280;39219;53.678;9.856;2022-07-24T05:53:02;101790.16;;;24.52;51.46
52839;BME280;39219;53.678;9.856;2022-07-24T05:55:30;101796.72;;;24.35;51.59
52839;BME280;39219;53.678;9.856;2022-07-24T05:57:56;101796.25;;;24.56;49.19
52839;BME280;39219;53.678;9.856;2022-07-24T06:00:23;101789.13;;;24.82;53.01
52839;BME280;39219;53.678;9.856;2022-07-24T06:02:49;101781.22;;;24.65;48.94
52839;BME280;39219;53.678;9.856;2022-07-24T06:05:16;101789.47;;;25.44;49.35
52839;BME280;39219;53.678;9.856;2022-07-24T06:07:43;101788.38;;;24.93;49.41
52839;BME280;39219;53.678;9.856;2022-07-24T06:10:09;101782.13;;;23.80;52.60
52839;BME280;39219;53.678;9.856;2022-07-24T06:12:37;101779.16;;;22.64;54.91
52839;BME280;39219;53.678;9.856;2022-07-24T06:15:05;101783.94;;;22.11;56.70
52839;BME280;39219;53.678;9.856;2022-07-24T06:17:31;101769.38;;;21.64;58.15
52839;BME280;39219;53.678;9.856;2022-07-24T06:19:58;101778.41;;;22.46;56.42
52839;BME280;39219;53.678;9.856;2022-07-24T06:22:24;101775.63;;;24.12;53.09
52839;BME280;39219;53.678;9.856;2022-07-24T06:24:51;101777.78;;;25.16;51.66
52839;BME280;39219;53.678;9.856;2022-07-24T06:27:17;101771.38;;;24.77;50.96
52839;BME280;39219;53.678;9.856;2022-07-24T06:29:45;101773.19;;;25.04;49.30
52839;BME280;39219;53.678;9.856;2022-07-24T06:32:12;101776.34;;;26.01;46.05
52839;BME280;39219;53.678;9.856;2022-07-24T06:34:38;101774.53;;;26.39;45.03
52839;BME280;39219;53.678;9.856;2022-07-24T06:37:04;101768.59;;;26.21;45.54
52839;BME280;39219;53.678;9.856;2022-07-24T06:39:31;101765.13;;;26.92;45.54
52839;BME280;39219;53.678;9.856;2022-07-24T06:41:58;101770.81;;;26.88;45.71
52839;BME280;39219;53.678;9.856;2022-07-24T06:44:24;101762.81;;;26.25;44.96
52839;BME280;39219;53.678;9.856;2022-07-24T06:46:52;101767.63;;;26.22;45.91
52839;BME280;39219;53.678;9.856;2022-07-24T06:49:19;101764.19;;;27.51;43.61
52839;BME280;39219;53.678;9.856;2022-07-24T06:51:45;101761.28;;;27.30;43.67
52839;BME280;39219;53.678;9.856;2022-07-24T06:54:13;101753.50;;;27.01;43.42
52839;BME280;39219;53.678;9.856;2022-07-24T06:56:39;101755.69;;;27.31;43.90
52839;BME280;39219;53.678;9.856;2022-07-24T06:59:06;101756.25;;;27.01;44.16
52839;BME280;39219;53.678;9.856;2022-07-24T07:01:32;101749.63;;;26.32;45.78
52839;BME280;39219;53.678;9.856;2022-07-24T07:04:00;101760.06;;;25.88;46.21
52839;BME280;39219;53.678;9.856;2022-07-24T07:06:26;101759.09;;;26.99;44.20
52839;BME280;39219;53.678;9.856;2022-07-24T07:08:53;101750.31;;;26.23;45.37
52839;BME280;39219;53.678;9.856;2022-07-24T07:11:20;101759.63;;;26.56;47.26
52839;BME280;39219;53.678;9.856;2022-07-24T07:13:46;101757.00;;;27.50;45.30
52839;BME280;39219;53.678;9.856;2022-07-24T07:16:13;101761.88;;;26.62;45.22
52839;BME280;39219;53.678;9.856;2022-07-24T07:18:39;101758.72;;;27.51;42.95
52839;BME280;39219;53.678;9.856;2022-07-24T07:21:08;101768.47;;;28.33;40.74
52839;BME280;39219;53.678;9.856;2022-07-24T07:23:35;101765.66;;;27.89;42.32
52839;BME280;39219;53.678;9.856;2022-07-24T07:26:01;101756.25;;;27.59;42.75
52839;BME280;39219;53.678;9.856;2022-07-24T07:28:28;101756.44;;;26.86;43.78
52839;BME280;39219;53.678;9.856;2022-07-24T07:30:55;101763.22;;;26.32;46.47
52839;BME280;39219;53.678;9.856;2022-07-24T07:33:21;101758.78;;;25.68;48.11
52839;BME280;39219;53.678;9.856;2022-07-24T07:35:48;101755.63;;;25.48;48.36
52839;BME280;39219;53.678;9.856;2022-07-24T07:38:16;101756.69;;;25.07;49.80
52839;BME280;39219;53.678;9.856;2022-07-24T07:40:43;101751.69;;;25.13;49.45
52839;BME280;39219;53.678;9.856;2022-07-24T07:43:09;101751.84;;;24.84;50.97
52839;BME280;39219;53.678;9.856;2022-07-24T07:45:36;101752.28;;;26.21;49.17
52839;BME280;39219;53.678;9.856;2022-07-24T07:48:03;101751.56;;;26.79;45.36
52839;BME280;39219;53.678;9.856;2022-07-24T07:50:29;101744.84;;;26.71;46.29
52839;BME280;39219;53.678;9.856;2022-07-24T07:52:56;101746.84;;;27.05;46.22
52839;BME280;39219;53.678;9.856;2022-07-24T07:55:24;101739.97;;;26.88;46.31
52839;BME280;39219;53.678;9.856;2022-07-24T07:57:50;101731.16;;;26.11;47.91
52839;BME280;39219;53.678;9.856;2022-07-24T08:00:17;101726.16;;;26.42;48.24
52839;BME280;39219;53.678;9.856;2022-07-24T08:02:44;101735.59;;;27.21;47.18
52839;BME280;39219;53.678;9.856;2022-07-24T08:05:11;101739.06;;;28.37;43.81
52839;BME280;39219;53.678;9.856;2022-07-24T08:07:38;101745.03;;;26.81;45.55
52839;BME280;39219;53.678;9.856;2022-07-24T08:10:05;101746.22;;;25.91;48.56
52839;BME280;39219;53.678;9.856;2022-07-24T08:12:33;101741.69;;;25.40;48.86
52839;BME280;39219;53.678;9.856;2022-07-24T08:15:00;101740.81;;;25.26;50.22
52839;BME280;39219;53.678;9.856;2022-07-24T08:17:26;101739.31;;;25.48;50.53
52839;BME280;39219;53.678;9.856;2022-07-24T08:19:53;101746.72;;;26.46;51.01
52839;BME280;39219;53.678;9.856;2022-07-24T08:22:19;101742.94;;;26.60;46.33
52839;BME280;39219;53.678;9.856;2022-07-24T08:24:46;101734.31;;;26.91;48.08
52839;BME280;39219;53.678;9.856;2022-07-24T08:27:12;101730.38;;;27.18;47.21
52839;BME280;39219;53.678;9.856;2022-07-24T08:29:40;101727.56;;;25.61;48.13
52839;BME280;39219;53.678;9.856;2022-07-24T08:32:06;101724.19;;;25.31;50.56
52839;BME280;39219;53.678;9.856;2022-07-24T08:34:33;101727.13;;;25.67;50.71
52839;BME280;39219;53.678;9.856;2022-07-24T08:36:59;101704.31;;;25.94;50.13
52839;BME280;39219;53.678;9.856;2022-07-24T08:39:26;101716.94;;;25.95;47.62
52839;BME280;39219;53.678;9.856;2022-07-24T08:41:52;101706.66;;;25.74;51.94
52839;BME280;39219;53.678;9.856;2022-07-24T08:44:19;101716.09;;;26.67;49.07
52839;BME280;39219;53.678;9.856;2022-07-24T08:46:48;101719.00;;;26.53;48.64
52839;BME280;39219;53.678;9.856;2022-07-24T08:49:15;101717.09;;;26.66;48.30
52839;BME280;39219;53.678;9.856;2022-07-24T08:51:43;101707.78;;;25.96;48.67
52839;BME280;39219;53.678;9.856;2022-07-24T08:54:10;101714.22;;;25.95;49.95
52839;BME280;39219;53.678;9.856;2022-07-24T08:56:38;101714.53;;;26.52;48.81
52839;BME280;39219;53.678;9.856;2022-07-24T08:59:08;101709.00;;;25.92;47.47
52839;BME280;39219;53.678;9.856;2022-07-24T09:01:41;101713.41;;;25.68;48.41
52839;BME280;39219;53.678;9.856;2022-07-24T09:04:30;101697.75;;;25.72;47.91
52839;BME280;39219;53.678;9.856;2022-07-24T09:06:58;101691.88;;;25.78;49.22
52839;BME280;39219;53.678;9.856;2022-07-24T09:09:26;101705.69;;;26.37;50.46
52839;BME280;39219;53.678;9.856;2022-07-24T09:12:02;101706.16;;;26.30;49.61
52839;BME280;39219;53.678;9.856;2022-07-24T09:14:30;101709.41;;;26.96;48.88
52839;BME280;39219;53.678;9.856;2022-07-24T09:17:01;101711.13;;;26.61;48.26
52839;BME280;39219;53.678;9.856;2022-07-24T09:19:29;101701.19;;;26.49;47.83
52839;BME280;39219;53.678;9.856;2022-07-24T09:21:57;101695.88;;;26.83;48.37
52839;BME280;39219;53.678;9.856;2022-07-24T09:24:23;101701.44;;;26.45;47.56
52839;BME280;39219;53.678;9.856;2022-07-24T09:26:51;101698.41;;;26.37;47.91
52839;BME280;39219;53.678;9.856;2022-07-24T09:29:21;101695.78;;;26.36;47.56
52839;BME280;39219;53.678;9.856;2022-07-24T09:31:55;101681.88;;;26.16;47.54
52839;BME280;39219;53.678;9.856;2022-07-24T09:34:22;101689.47;;;26.59;47.54
52839;BME280;39219;53.678;9.856;2022-07-24T09:36:59;101696.66;;;26.96;47.67
52839;BME280;39219;53.678;9.856;2022-07-24T09:39:26;101682.59;;;26.78;45.95
52839;BME280;39219;53.678;9.856;2022-07-24T09:41:55;101689.22;;;26.27;46.62
52839;BME280;39219;53.678;9.856;2022-07-24T09:44:23;101688.78;;;26.20;47.27
52839;BME280;39219;53.678;9.856;2022-07-24T09:47:01;101689.19;;;26.87;47.61
52839;BME280;39219;53.678;9.856;2022-07-24T09:49:28;101687.75;;;27.05;47.33
52839;BME280;39219;53.678;9.856;2022-07-24T09:52:12;101672.69;;;26.77;47.63
52839;BME280;39219;53.678;9.856;2022-07-24T09:54:40;101686.41;;;26.15;46.64
52839;BME280;39219;53.678;9.856;2022-07-24T09:57:18;101677.16;;;26.42;46.77
52839;BME280;39219;53.678;9.856;2022-07-24T09:59:47;101676.28;;;26.17;47.16
52839;BME280;39219;53.678;9.856;2022-07-24T10:02:15;101668.44;;;26.61;46.85
52839;BME280;39219;53.678;9.856;2022-07-24T10:04:43;101677.34;;;26.28;46.65
52839;BME280;39219;53.678;9.856;2022-07-24T10:07:13;101668.00;;;26.55;47.26
52839;BME280;39219;53.678;9.856;2022-07-24T10:09:41;101679.16;;;26.87;47.83
52839;BME280;39219;53.678;9.856;2022-07-24T10:12:12;101671.72;;;26.89;46.61
52839;BME280;39219;53.678;9.856;2022-07-24T10:14:39;101673.91;;;26.73;46.13
52839;BME280;39219;53.678;9.856;2022-07-24T10:17:07;101668.31;;;26.74;45.83
52839;BME280;39219;53.678;9.856;2022-07-24T10:19:39;101670.22;;;26.85;47.46
52839;BME280;39219;53.678;9.856;2022-07-24T10:22:10;101658.63;;;27.06;45.82
52839;BME280;39219;53.678;9.856;2022-07-24T10:24:58;101655.28;;;27.25;46.18
52839;BME280;39219;53.678;9.856;2022-07-24T10:27:28;101651.56;;;26.56;46.13
52839;BME280;39219;53.678;9.856;2022-07-24T10:29:57;101650.00;;;26.76;46.50
52839;BME280;39219;53.678;9.856;2022-07-24T10:32:25;101650.09;;;26.99;45.92
52839;BME280;39219;53.678;9.856;2022-07-24T10:35:06;101651.22;;;27.42;45.50
52839;BME280;39219;53.678;9.856;2022-07-24T10:37:41;101663.72;;;27.45;44.81
52839;BME280;39219;53.678;9.856;2022-07-24T10:40:18;101653.69;;;27.45;43.95
52839;BME280;39219;53.678;9.856;2022-07-24T10:43:12;101642.56;;;27.48;44.48
52839;BME280;39219;53.678;9.856;2022-07-24T10:45:39;101658.59;;;27.97;44.75
52839;BME280;39219;53.678;9.856;2022-07-24T10:48:26;101655.94;;;28.07;44.91
52839;BME280;39219;53.678;9.856;2022-07-24T10:51:01;101652.81;;;27.79;44.09
52839;BME280;39219;53.678;9.856;2022-07-24T10:53:29;101638.81;;;27.61;45.01
52839;BME280;39219;53.678;9.856;2022-07-24T10:56:16;101631.97;;;27.78;45.79
52839;BME280;39219;53.678;9.856;2022-07-24T10:58:58;101628.78;;;27.73;44.13
52839;BME280;39219;53.678;9.856;2022-07-24T11:01:37;101627.19;;;27.36;45.72
52839;BME280;39219;53.678;9.856;2022-07-24T11:04:24;101616.78;;;27.97;45.64
52839;BME280;39219;53.678;9.856;2022-07-24T11:06:52;101619.88;;;28.15;44.16
52839;BME280;39219;53.678;9.856;2022-07-24T11:09:20;101616.88;;;28.39;44.54
52839;BME280;39219;53.678;9.856;2022-07-24T11:12:05;101619.16;;;28.55;43.53
52839;BME280;39219;53.678;9.856;2022-07-24T11:14:49;101620.47;;;28.40;44.31
52839;BME280;39219;53.678;9.856;2022-07-24T11:17:38;101617.53;;;27.87;44.85
52839;BME280;39219;53.678;9.856;2022-07-24T11:20:06;101613.31;;;28.27;43.34
52839;BME280;39219;53.678;9.856;2022-07-24T11:22:38;101618.94;;;28.47;42.94
52839;BME280;39219;53.678;9.856;2022-07-24T11:25:11;101609.66;;;28.17;44.34
52839;BME280;39219;53.678;9.856;2022-07-24T11:27:52;101616.88;;;28.60;43.29
52839;BME280;39219;53.678;9.856;2022-07-24T11:30:23;101611.00;;;28.44;43.49
52839;BME280;39219;53.678;9.856;2022-07-24T11:32:49;101597.03;;;28.37;44.24
52839;BME280;39219;53.678;9.856;2022-07-24T11:35:16;101587.59;;;28.72;43.87
52839;BME280;39219;53.678;9.856;2022-07-24T11:37:43;101602.22;;;28.83;43.48
52839;BME280;39219;53.678;9.856;2022-07-24T11:40:15;101563.41;;;28.04;43.49
52839;BME280;39219;53.678;9.856;2022-07-24T11:42:41;101584.28;;;27.93;44.59
52839;BME280;39219;53.678;9.856;2022-07-24T11:45:10;101579.72;;;28.27;44.50
52839;BME280;39219;53.678;9.856;2022-07-24T11:47:37;101569.50;;;28.50;44.64
52839;BME280;39219;53.678;9.856;2022-07-24T11:50:06;101554.13;;;28.28;44.37
52839;BME280;39219;53.678;9.856;2022-07-24T11:52:35;101553.28;;;28.48;44.03
52839;BME280;39219;53.678;9.856;2022-07-24T11:55:07;101554.56;;;28.75;44.11
52839;BME280;39219;53.678;9.856;2022-07-24T11:57:36;101539.00;;;28.45;44.55
52839;BME280;39219;53.678;9.856;2022-07-24T12:00:04;101541.19;;;28.51;43.47
52839;BME280;39219;53.678;9.856;2022-07-24T12:02:34;101555.53;;;29.36;43.12
52839;BME280;39219;53.678;9.856;2022-07-24T12:05:00;101557.03;;;29.60;41.39
52839;BME280;39219;53.678;9.856;2022-07-24T12:07:27;101541.50;;;29.70;41.25
52839;BME280;39219;53.678;9.856;2022-07-24T12:09:56;101536.00;;;29.90;42.46
52839;BME280;39219;53.678;9.856;2022-07-24T12:12:25;101529.25;;;29.55;43.12
52839;BME280;39219;53.678;9.856;2022-07-24T12:14:54;101520.88;;;28.44;43.42
52839;BME280;39219;53.678;9.856;2022-07-24T12:17:25;101527.75;;;28.38;44.44
52839;BME280;39219;53.678;9.856;2022-07-24T12:19:56;101525.31;;;28.35;43.48
52839;BME280;39219;53.678;9.856;2022-07-24T12:22:24;101528.38;;;28.51;44.06
52839;BME280;39219;53.678;9.856;2022-07-24T12:24:52;101502.38;;;28.26;43.46
52839;BME280;39219;53.678;9.856;2022-07-24T12:27:35;101508.75;;;27.94;44.30
52839;BME280;39219;53.678;9.856;2022-07-24T12:30:04;101524.44;;;28.13;44.02
52839;BME280;39219;53.678;9.856;2022-07-24T12:32:52;101511.19;;;28.61;43.45
52839;BME280;39219;53.678;9.856;2022-07-24T12:35:20;101515.13;;;29.40;44.92
52839;BME280;39219;53.678;9.856;2022-07-24T12:37:46;101506.84;;;29.30;43.15
52839;BME280;39219;53.678;9.856;2022-07-24T12:40:23;101510.28;;;29.13;42.20
52839;BME280;39219;53.678;9.856;2022-07-24T12:42:55;101510.56;;;28.26;42.31
52839;BME280;39219;53.678;9.856;2022-07-24T12:45:22;101505.13;;;28.78;42.13
52839;BME280;39219;53.678;9.856;2022-07-24T12:48:05;101505.09;;;29.09;40.19
52839;BME280;39219;53.678;9.856;2022-07-24T12:50:33;101503.81;;;29.23;41.27
52839;BME280;39219;53.678;9.856;2022-07-24T12:53:02;101476.53;;;29.43;40.36